Aviation Digital Data Service (ADDS)

Output produced by METARs form (1421 UTC 19 April 2019)
found at http://www.aviationweather.gov/metar/data/
 
OMAA 191400Z 33008KT 300V020 CAVOK 36/10 Q1007 WS ALL RWY BECMG 03008KT
TAF OMAA 191100Z 1912/2018 20006KT 8000 NSC 
     BECMG 1912/1914 02010KT 
     BECMG 1917/1919 09008KT 
     BECMG 2001/2003 16010KT 
     BECMG 2009/2011 25008KT 
     BECMG 2012/2014 34010KT
       
OMAL 191400Z 21005KT CAVOK 36/05 Q1010 NOSIG
TAF OMAL 191100Z 1912/2018 20006KT 8000 NSC 
     BECMG 1916/1918 04006KT 
     BECMG 1919/1921 11006KT 
     BECMG 2000/2002 16012KT 
     BECMG 2010/2012 23008KT 
     BECMG 2014/2016 32008KT
       
OMAM 191400Z 17007KT CAVOK 39/M02 Q1008 A2979
OMAH 191400Z 04009KT CAVOK 33/15 Q1008 A2976
OMAD 191400Z 03005KT CAVOK 34/15 Q1008 NOSIG
TAF OMAD 191100Z 1912/2018 VRB02KT 8000 NSC 
     BECMG 1912/1914 02010KT 
     BECMG 1917/1919 10008KT 
     BECMG 2001/2003 17010KT 
     BECMG 2008/2010 25008KT 
     BECMG 2011/2013 34010KT
       
OMDB 191400Z 35009KT 320V020 CAVOK 32/15 Q1008 NOSIG
TAF OMDB 191051Z 1912/2018 34012KT CAVOK 
     BECMG 1915/1917 10005KT 
     BECMG 2002/2004 19012KT 
     BECMG 2008/2010 32013KT 
     BECMG 2015/2017 08007KT
       
OMFJ 191400Z 12004KT 7000 NSC 28/21 Q1009 RMK A2981
TAF OMFJ 191100Z 1912/2018 09006KT 6000 NSC 
     BECMG 1915/1917 VRB03KT 
     PROB30 1923/2004 3000 HZ FEW020 
     BECMG 2005/2007 08008KT 
     BECMG 2014/2016 VRB03KT
       
OMAJ 191400Z AUTO 19003KT 150V220 //// // ////// 38/M02 Q1009 A2982
OMDM 191400Z 33009KT CAVOK 34/05 Q1008 A2979
OMRK 191400Z 34007KT CAVOK 33/06 Q1009 A2981
TAF OMRK 191051Z 1912/2018 35012KT CAVOK 
     BECMG 1914/1916 08005KT 
     BECMG 2004/2006 22010KT 
     BECMG 2008/2010 33014KT 
     BECMG 2014/2016 05005KT
       
OMSJ 191400Z 32008KT CAVOK 31/13 Q1009
TAF OMSJ 191051Z 1912/2018 34012KT CAVOK 
     BECMG 1915/1917 11005KT 
     BECMG 2002/2004 18012KT 
     BECMG 2009/2011 33013KT 
     BECMG 2014/2016 08007KT